Tamon — JD2900 — position and weather

sailwx.info

Track history (hours):
 
Tides and Currents Weather Stations Pressure Air Temp Water Temp Dewpoint Dewpoint Depression Visibility Wind Speed Wind Dir Waves Ship Positions

Tamon

Last reported at 2017-Nov-20 00:30 UTC. Time now 2017-Nov-21 20:56 UTC.
Position N 34°39' E 135°15'.

Length 77 m; draft 4.5 m.

Type: Cargo ship. MMSI: 431000898.

Date/timePositionNaut miles runAvg speedWind from/ knotsBaromVisibWave heightAir tempDewpointWater temp
2017-Nov-20 00:30N 34°39' E 135°15'0 0.0
2017-Nov-20 00:00N 34°39' E 135°15'1 2.7
2017-Nov-19 23:31N 34°40' E 135°13'0 0.0
2017-Nov-19 23:00N 34°40' E 135°13'0 0.0
2017-Nov-19 22:30N 34°40' E 135°13'0 0.0
2017-Nov-19 22:00N 34°40' E 135°13'0 0.0
2017-Nov-19 21:30N 34°40' E 135°13'0 0.0
2017-Nov-19 21:00N 34°40' E 135°13'0 0.0
2017-Nov-19 20:30N 34°40' E 135°13'0 0.0
2017-Nov-19 20:00N 34°40' E 135°13'0 0.1
2017-Nov-19 19:30N 34°40' E 135°13'0 0.1
2017-Nov-19 19:01N 34°40' E 135°13'0 0.0
2017-Nov-19 18:30N 34°40' E 135°13'0 0.0
2017-Nov-19 18:00N 34°40' E 135°13'0 0.0
2017-Nov-19 17:30N 34°40' E 135°13'0 0.0
2017-Nov-19 17:00N 34°40' E 135°13'0 0.0
2017-Nov-19 16:30N 34°40' E 135°13'0 0.0
2017-Nov-19 16:00N 34°40' E 135°13'0 0.0
2017-Nov-19 15:30N 34°40' E 135°13'0 0.0
2017-Nov-19 15:00N 34°40' E 135°13'0 0.0
2017-Nov-19 14:30N 34°40' E 135°13'0 0.0
2017-Nov-19 14:00N 34°40' E 135°13'0 0.0
2017-Nov-19 13:31N 34°40' E 135°13'0 0.0
2017-Nov-19 13:01N 34°40' E 135°13'0 0.0
2017-Nov-19 12:30N 34°40' E 135°13'0 0.0
2017-Nov-19 12:00N 34°40' E 135°13'0 0.0
2017-Nov-19 11:30N 34°40' E 135°13'0 0.0
2017-Nov-19 11:00N 34°40' E 135°13'0 0.0
2017-Nov-19 10:30N 34°40' E 135°13'0 0.0
2017-Nov-19 10:00N 34°40' E 135°13'0 0.0
2017-Nov-19 09:30N 34°40' E 135°13'0 0.0
2017-Nov-19 09:00N 34°40' E 135°13'0 0.0
2017-Nov-19 08:30N 34°40' E 135°13'0 0.0
2017-Nov-19 08:01N 34°40' E 135°13'0 0.0
2017-Nov-19 07:30N 34°40' E 135°13'0 0.0
2017-Nov-19 07:01N 34°40' E 135°13'0 0.0
2017-Nov-19 06:31N 34°40' E 135°13'0 0.0
2017-Nov-19 06:00N 34°40' E 135°13'0 0.0
2017-Nov-19 05:30N 34°40' E 135°13'0 0.0
2017-Nov-19 05:00N 34°40' E 135°13'0 0.0
2017-Nov-19 04:31N 34°40' E 135°13'0 0.0
2017-Nov-19 04:00N 34°40' E 135°13'0 0.0
2017-Nov-19 03:30N 34°40' E 135°13'0 0.0
2017-Nov-19 03:00N 34°40' E 135°13'0 0.0
2017-Nov-19 02:30N 34°40' E 135°13'0 0.0
2017-Nov-19 02:00N 34°40' E 135°13'0 0.0
2017-Nov-19 01:30N 34°40' E 135°13'0 0.0
2017-Nov-19 01:00N 34°40' E 135°13'0 0.0
2017-Nov-19 00:30N 34°40' E 135°13'0 0.0
2017-Nov-19 00:00N 34°40' E 135°13'0 0.0
2017-Nov-18 23:30N 34°40' E 135°13'0 0.0
2017-Nov-18 23:00N 34°40' E 135°13'0 0.0
2017-Nov-18 22:30N 34°40' E 135°13'0 0.0
2017-Nov-18 22:00N 34°40' E 135°13'2 5.0
2017-Nov-18 21:30N 34°38' E 135°15'612.9
2017-Nov-18 21:00N 34°36' E 135°07'611.1
2017-Nov-18 20:30N 34°37' E 135°01'  
2017-Nov-15 05:25N 34°35' E 134°51'511.2
2017-Nov-15 04:58N 34°37' E 134°57'4 9.1
2017-Nov-15 04:29N 34°37' E 135°02'5 9.9
2017-Nov-15 04:00N 34°37' E 135°08'611.6
2017-Nov-15 03:30N 34°38' E 135°15'3 6.1
2017-Nov-15 03:00N 34°41' E 135°17'0 0.6
2017-Nov-15 02:30N 34°41' E 135°16'2 3.8
2017-Nov-15 02:00N 34°40' E 135°14'0 0.0
2017-Nov-15 01:30N 34°40' E 135°14'1 1.1
2017-Nov-15 01:00N 34°39' E 135°15'0 0.4
2017-Nov-15 00:30N 34°39' E 135°15'2 3.2
2017-Nov-15 00:00N 34°41' E 135°16'0 0.7
2017-Nov-14 23:30N 34°41' E 135°17'0 0.8
2017-Nov-14 23:00N 34°41' E 135°16'0 0.0
2017-Nov-14 22:30N 34°41' E 135°16'0 0.0
2017-Nov-14 22:00N 34°41' E 135°16'0 0.0
2017-Nov-14 21:30N 34°41' E 135°16'0 0.0
2017-Nov-14 21:00N 34°41' E 135°16'0 0.0
2017-Nov-14 20:30N 34°41' E 135°16'0 0.0
2017-Nov-14 20:00N 34°41' E 135°16'0 0.0
2017-Nov-14 19:30N 34°41' E 135°16'0 0.0
2017-Nov-14 19:00N 34°41' E 135°16'0 0.0
2017-Nov-14 18:30N 34°41' E 135°16'0 0.1
2017-Nov-14 18:00N 34°41' E 135°16'0 0.0
2017-Nov-14 17:30N 34°41' E 135°16'3 6.5
2017-Nov-14 17:00N 34°38' E 135°14'612.8
2017-Nov-14 16:30N 34°35' E 135°07'714.1
2017-Nov-14 16:00N 34°37' E 134°59'15 0.4
2017-Nov-13 02:01N 34°41' E 135°17'0 0.0
2017-Nov-13 01:31N 34°41' E 135°17'0 0.9
2017-Nov-13 01:01N 34°41' E 135°16'2 3.8
2017-Nov-13 00:30N 34°39' E 135°15'0 0.0
2017-Nov-13 00:01N 34°39' E 135°15'0 0.0
2017-Nov-12 23:31N 34°39' E 135°15'2 3.5
2017-Nov-12 22:59N 34°40' E 135°13'0 0.2
2017-Nov-12 22:31N 34°40' E 135°13'0 0.0
2017-Nov-12 22:00N 34°40' E 135°13'0 0.0
2017-Nov-12 21:31N 34°40' E 135°13'0 0.0
2017-Nov-12 21:01N 34°40' E 135°13'0 0.0
2017-Nov-12 20:30N 34°40' E 135°13'0 0.0
2017-Nov-12 20:01N 34°40' E 135°13'0 0.0
2017-Nov-12 19:31N 34°40' E 135°13'0 0.0
2017-Nov-12 19:01N 34°40' E 135°13'0 0.0
2017-Nov-12 18:31N 34°40' E 135°13'0 0.0
2017-Nov-12 18:01N 34°40' E 135°13'0 0.0
2017-Nov-12 17:30N 34°40' E 135°13'0 0.0
2017-Nov-12 17:01N 34°40' E 135°13'0 0.0
2017-Nov-12 16:30N 34°40' E 135°13'0 0.0
2017-Nov-12 16:00N 34°40' E 135°13'0 0.0
2017-Nov-12 15:30N 34°40' E 135°13'0 0.0
2017-Nov-12 15:00N 34°40' E 135°13'0 0.0
2017-Nov-12 14:31N 34°40' E 135°13'0 0.0
2017-Nov-12 14:01N 34°40' E 135°13'0 0.0
2017-Nov-12 13:30N 34°40' E 135°13'0 0.0
2017-Nov-12 13:00N 34°40' E 135°13'0 0.0
2017-Nov-12 12:30N 34°40' E 135°13'0 0.0
2017-Nov-12 12:00N 34°40' E 135°13'0 0.0
2017-Nov-12 11:30N 34°40' E 135°13'0 0.0
2017-Nov-12 11:00N 34°40' E 135°13'0 0.0
2017-Nov-12 10:31N 34°40' E 135°13'0 0.0
2017-Nov-12 10:01N 34°40' E 135°13'0 0.0
2017-Nov-12 09:31N 34°40' E 135°13'0 0.0
2017-Nov-12 09:00N 34°40' E 135°13'0 0.0
2017-Nov-12 08:31N 34°40' E 135°13'0 0.0
2017-Nov-12 08:00N 34°40' E 135°13'0 0.0
2017-Nov-12 07:30N 34°40' E 135°13'0 0.0
2017-Nov-12 07:00N 34°40' E 135°13'0 0.0
2017-Nov-12 06:31N 34°40' E 135°13'0 0.0
2017-Nov-12 06:00N 34°40' E 135°13'0 0.0
2017-Nov-12 05:31N 34°40' E 135°13'0 0.0
2017-Nov-12 05:00N 34°40' E 135°13'0 0.0
2017-Nov-12 04:30N 34°40' E 135°13'0 0.0
2017-Nov-12 04:00N 34°40' E 135°13'0 0.0
2017-Nov-12 03:30N 34°40' E 135°13'0 0.0
2017-Nov-12 03:01N 34°40' E 135°13'0 0.0
2017-Nov-12 02:30N 34°40' E 135°13'0 0.0
2017-Nov-12 02:00N 34°40' E 135°13'0 0.0
2017-Nov-12 01:30N 34°40' E 135°13'0 0.0
2017-Nov-12 01:01N 34°40' E 135°13'0 0.0
2017-Nov-12 00:31N 34°40' E 135°13'0 0.0
2017-Nov-12 00:01N 34°40' E 135°13'0 0.0
2017-Nov-11 23:30N 34°40' E 135°13'0 0.0
2017-Nov-11 23:00N 34°40' E 135°13'0 0.0
2017-Nov-11 22:30N 34°40' E 135°13'0 0.0
2017-Nov-11 22:01N 34°40' E 135°13'2 4.6
2017-Nov-11 21:31N 34°39' E 135°15'611.4
2017-Nov-11 21:00N 34°36' E 135°09'611.5
2017-Nov-11 20:31N 34°36' E 135°02'510.7
2017-Nov-11 20:01N 34°36' E 134°56'3 0.1
2017-Nov-10 07:03N 34°36' E 134°53'113.5
2017-Nov-10 07:00N 34°36' E 134°53'713.2
2017-Nov-10 06:30N 34°37' E 135°01'612.8
2017-Nov-10 06:01N 34°37' E 135°09'611.4
2017-Nov-10 05:30N 34°39' E 135°15'0 0.8
2017-Nov-10 05:01N 34°39' E 135°15'0 0.0
2017-Nov-10 04:31N 34°39' E 135°15'1 1.4
2017-Nov-10 04:00N 34°39' E 135°15'0 0.0
2017-Nov-10 03:30N 34°39' E 135°15'2 4.6
2017-Nov-10 03:00N 34°41' E 135°17'0 0.3
2017-Nov-10 02:31N 34°41' E 135°17'0 0.0
2017-Nov-10 02:01N 34°41' E 135°17'0 0.7
2017-Nov-10 01:30N 34°41' E 135°16'0 0.0
2017-Nov-10 01:00N 34°41' E 135°16'0 0.0
2017-Nov-10 00:31N 34°41' E 135°16'  
Track history (hours):
 
Tides and Currents Weather Stations Pressure Air Temp Water Temp Dewpoint Dewpoint Depression Visibility Wind Speed Wind Dir Waves Ship Positions

Tamon

Last reported at 2017-Nov-20 00:30 UTC. Time now 2017-Nov-21 20:56 UTC.
Position N 34°39' E 135°15'.

Length 77 m; draft 4.5 m.

Type: Cargo ship. MMSI: 431000898.

Date/timePositionNaut miles runAvg speedWind from/ knotsBaromVisibWave heightAir tempDewpointWater temp
2017-Nov-20 00:30N 34°39' E 135°15'0 0.0
2017-Nov-20 00:00N 34°39' E 135°15'1 2.7
2017-Nov-19 23:31N 34°40' E 135°13'0 0.0
2017-Nov-19 23:00N 34°40' E 135°13'0 0.0
2017-Nov-19 22:30N 34°40' E 135°13'0 0.0
2017-Nov-19 22:00N 34°40' E 135°13'0 0.0
2017-Nov-19 21:30N 34°40' E 135°13'0 0.0
2017-Nov-19 21:00N 34°40' E 135°13'0 0.0
2017-Nov-19 20:30N 34°40' E 135°13'0 0.0
2017-Nov-19 20:00N 34°40' E 135°13'0 0.1
2017-Nov-19 19:30N 34°40' E 135°13'0 0.1
2017-Nov-19 19:01N 34°40' E 135°13'0 0.0
2017-Nov-19 18:30N 34°40' E 135°13'0 0.0
2017-Nov-19 18:00N 34°40' E 135°13'0 0.0
2017-Nov-19 17:30N 34°40' E 135°13'0 0.0
2017-Nov-19 17:00N 34°40' E 135°13'0 0.0
2017-Nov-19 16:30N 34°40' E 135°13'0 0.0
2017-Nov-19 16:00N 34°40' E 135°13'0 0.0
2017-Nov-19 15:30N 34°40' E 135°13'0 0.0
2017-Nov-19 15:00N 34°40' E 135°13'0 0.0
2017-Nov-19 14:30N 34°40' E 135°13'0 0.0
2017-Nov-19 14:00N 34°40' E 135°13'0 0.0
2017-Nov-19 13:31N 34°40' E 135°13'0 0.0
2017-Nov-19 13:01N 34°40' E 135°13'0 0.0
2017-Nov-19 12:30N 34°40' E 135°13'0 0.0
2017-Nov-19 12:00N 34°40' E 135°13'0 0.0
2017-Nov-19 11:30N 34°40' E 135°13'0 0.0
2017-Nov-19 11:00N 34°40' E 135°13'0 0.0
2017-Nov-19 10:30N 34°40' E 135°13'0 0.0
2017-Nov-19 10:00N 34°40' E 135°13'0 0.0
2017-Nov-19 09:30N 34°40' E 135°13'0 0.0
2017-Nov-19 09:00N 34°40' E 135°13'0 0.0
2017-Nov-19 08:30N 34°40' E 135°13'0 0.0
2017-Nov-19 08:01N 34°40' E 135°13'0 0.0
2017-Nov-19 07:30N 34°40' E 135°13'0 0.0
2017-Nov-19 07:01N 34°40' E 135°13'0 0.0
2017-Nov-19 06:31N 34°40' E 135°13'0 0.0
2017-Nov-19 06:00N 34°40' E 135°13'0 0.0
2017-Nov-19 05:30N 34°40' E 135°13'0 0.0
2017-Nov-19 05:00N 34°40' E 135°13'0 0.0
2017-Nov-19 04:31N 34°40' E 135°13'0 0.0
2017-Nov-19 04:00N 34°40' E 135°13'0 0.0
2017-Nov-19 03:30N 34°40' E 135°13'0 0.0
2017-Nov-19 03:00N 34°40' E 135°13'0 0.0
2017-Nov-19 02:30N 34°40' E 135°13'0 0.0
2017-Nov-19 02:00N 34°40' E 135°13'0 0.0
2017-Nov-19 01:30N 34°40' E 135°13'0 0.0
2017-Nov-19 01:00N 34°40' E 135°13'0 0.0
2017-Nov-19 00:30N 34°40' E 135°13'0 0.0
2017-Nov-19 00:00N 34°40' E 135°13'0 0.0
2017-Nov-18 23:30N 34°40' E 135°13'0 0.0
2017-Nov-18 23:00N 34°40' E 135°13'0 0.0
2017-Nov-18 22:30N 34°40' E 135°13'0 0.0
2017-Nov-18 22:00N 34°40' E 135°13'2 5.0
2017-Nov-18 21:30N 34°38' E 135°15'612.9
2017-Nov-18 21:00N 34°36' E 135°07'611.1
2017-Nov-18 20:30N 34°37' E 135°01'  
2017-Nov-15 05:25N 34°35' E 134°51'511.2
2017-Nov-15 04:58N 34°37' E 134°57'4 9.1
2017-Nov-15 04:29N 34°37' E 135°02'5 9.9
2017-Nov-15 04:00N 34°37' E 135°08'611.6
2017-Nov-15 03:30N 34°38' E 135°15'3 6.1
2017-Nov-15 03:00N 34°41' E 135°17'0 0.6
2017-Nov-15 02:30N 34°41' E 135°16'2 3.8
2017-Nov-15 02:00N 34°40' E 135°14'0 0.0
2017-Nov-15 01:30N 34°40' E 135°14'1 1.1
2017-Nov-15 01:00N 34°39' E 135°15'0 0.4
2017-Nov-15 00:30N 34°39' E 135°15'2 3.2
2017-Nov-15 00:00N 34°41' E 135°16'0 0.7
2017-Nov-14 23:30N 34°41' E 135°17'0 0.8
2017-Nov-14 23:00N 34°41' E 135°16'0 0.0
2017-Nov-14 22:30N 34°41' E 135°16'0 0.0
2017-Nov-14 22:00N 34°41' E 135°16'0 0.0
2017-Nov-14 21:30N 34°41' E 135°16'0 0.0
2017-Nov-14 21:00N 34°41' E 135°16'0 0.0
2017-Nov-14 20:30N 34°41' E 135°16'0 0.0
2017-Nov-14 20:00N 34°41' E 135°16'0 0.0
2017-Nov-14 19:30N 34°41' E 135°16'0 0.0
2017-Nov-14 19:00N 34°41' E 135°16'0 0.0
2017-Nov-14 18:30N 34°41' E 135°16'0 0.1
2017-Nov-14 18:00N 34°41' E 135°16'0 0.0
2017-Nov-14 17:30N 34°41' E 135°16'3 6.5
2017-Nov-14 17:00N 34°38' E 135°14'612.8
2017-Nov-14 16:30N 34°35' E 135°07'714.1
2017-Nov-14 16:00N 34°37' E 134°59'15 0.4
2017-Nov-13 02:01N 34°41' E 135°17'0 0.0
2017-Nov-13 01:31N 34°41' E 135°17'0 0.9
2017-Nov-13 01:01N 34°41' E 135°16'2 3.8
2017-Nov-13 00:30N 34°39' E 135°15'0 0.0
2017-Nov-13 00:01N 34°39' E 135°15'0 0.0
2017-Nov-12 23:31N 34°39' E 135°15'2 3.5
2017-Nov-12 22:59N 34°40' E 135°13'0 0.2
2017-Nov-12 22:31N 34°40' E 135°13'0 0.0
2017-Nov-12 22:00N 34°40' E 135°13'0 0.0
2017-Nov-12 21:31N 34°40' E 135°13'0 0.0
2017-Nov-12 21:01N 34°40' E 135°13'0 0.0
2017-Nov-12 20:30N 34°40' E 135°13'0 0.0
2017-Nov-12 20:01N 34°40' E 135°13'0 0.0
2017-Nov-12 19:31N 34°40' E 135°13'0 0.0
2017-Nov-12 19:01N 34°40' E 135°13'0 0.0
2017-Nov-12 18:31N 34°40' E 135°13'0 0.0
2017-Nov-12 18:01N 34°40' E 135°13'0 0.0
2017-Nov-12 17:30N 34°40' E 135°13'0 0.0
2017-Nov-12 17:01N 34°40' E 135°13'0 0.0
2017-Nov-12 16:30N 34°40' E 135°13'0 0.0
2017-Nov-12 16:00N 34°40' E 135°13'0 0.0
2017-Nov-12 15:30N 34°40' E 135°13'0 0.0
2017-Nov-12 15:00N 34°40' E 135°13'0 0.0
2017-Nov-12 14:31N 34°40' E 135°13'0 0.0
2017-Nov-12 14:01N 34°40' E 135°13'0 0.0
2017-Nov-12 13:30N 34°40' E 135°13'0 0.0
2017-Nov-12 13:00N 34°40' E 135°13'0 0.0
2017-Nov-12 12:30N 34°40' E 135°13'0 0.0
2017-Nov-12 12:00N 34°40' E 135°13'0 0.0
2017-Nov-12 11:30N 34°40' E 135°13'0 0.0
2017-Nov-12 11:00N 34°40' E 135°13'0 0.0
2017-Nov-12 10:31N 34°40' E 135°13'0 0.0
2017-Nov-12 10:01N 34°40' E 135°13'0 0.0
2017-Nov-12 09:31N 34°40' E 135°13'0 0.0
2017-Nov-12 09:00N 34°40' E 135°13'0 0.0
2017-Nov-12 08:31N 34°40' E 135°13'0 0.0
2017-Nov-12 08:00N 34°40' E 135°13'0 0.0
2017-Nov-12 07:30N 34°40' E 135°13'0 0.0
2017-Nov-12 07:00N 34°40' E 135°13'0 0.0
2017-Nov-12 06:31N 34°40' E 135°13'0 0.0
2017-Nov-12 06:00N 34°40' E 135°13'0 0.0
2017-Nov-12 05:31N 34°40' E 135°13'0 0.0
2017-Nov-12 05:00N 34°40' E 135°13'0 0.0
2017-Nov-12 04:30N 34°40' E 135°13'0 0.0
2017-Nov-12 04:00N 34°40' E 135°13'0 0.0
2017-Nov-12 03:30N 34°40' E 135°13'0 0.0
2017-Nov-12 03:01N 34°40' E 135°13'0 0.0
2017-Nov-12 02:30N 34°40' E 135°13'0 0.0
2017-Nov-12 02:00N 34°40' E 135°13'0 0.0
2017-Nov-12 01:30N 34°40' E 135°13'0 0.0
2017-Nov-12 01:01N 34°40' E 135°13'0 0.0
2017-Nov-12 00:31N 34°40' E 135°13'0 0.0
2017-Nov-12 00:01N 34°40' E 135°13'0 0.0
2017-Nov-11 23:30N 34°40' E 135°13'0 0.0
2017-Nov-11 23:00N 34°40' E 135°13'0 0.0
2017-Nov-11 22:30N 34°40' E 135°13'0 0.0
2017-Nov-11 22:01N 34°40' E 135°13'2 4.6
2017-Nov-11 21:31N 34°39' E 135°15'611.4
2017-Nov-11 21:00N 34°36' E 135°09'611.5
2017-Nov-11 20:31N 34°36' E 135°02'510.7
2017-Nov-11 20:01N 34°36' E 134°56'3 0.1
2017-Nov-10 07:03N 34°36' E 134°53'113.5
2017-Nov-10 07:00N 34°36' E 134°53'713.2
2017-Nov-10 06:30N 34°37' E 135°01'612.8
2017-Nov-10 06:01N 34°37' E 135°09'611.4
2017-Nov-10 05:30N 34°39' E 135°15'0 0.8
2017-Nov-10 05:01N 34°39' E 135°15'0 0.0
2017-Nov-10 04:31N 34°39' E 135°15'1 1.4
2017-Nov-10 04:00N 34°39' E 135°15'0 0.0
2017-Nov-10 03:30N 34°39' E 135°15'2 4.6
2017-Nov-10 03:00N 34°41' E 135°17'0 0.3
2017-Nov-10 02:31N 34°41' E 135°17'0 0.0
2017-Nov-10 02:01N 34°41' E 135°17'0 0.7
2017-Nov-10 01:30N 34°41' E 135°16'0 0.0
2017-Nov-10 01:00N 34°41' E 135°16'0 0.0
2017-Nov-10 00:31N 34°41' E 135°16'  

Dump ship's entire track history